createdAt,value
2023-05-21T00:00:43.445Z,100686.02
2023-05-21T00:03:42.257Z,100690.15
2023-05-21T00:06:27.949Z,100689.89
2023-05-21T00:09:13.553Z,100690.71
2023-05-21T00:11:59.164Z,100689.07
2023-05-21T00:14:44.480Z,100683.25
2023-05-21T00:17:29.793Z,100681.33
2023-05-21T00:20:15.713Z,100678.03
2023-05-21T00:23:06.833Z,100684.15
2023-05-21T00:25:52.789Z,100678.71
2023-05-21T00:28:38.245Z,100674.48
2023-05-21T00:31:23.496Z,100673.95
2023-05-21T00:34:08.597Z,100673.13
2023-05-21T00:36:55.199Z,100677.19
2023-05-21T00:39:43.644Z,100672.12
2023-05-21T00:42:32.816Z,100674.18
2023-05-21T00:45:18.949Z,100676.73
2023-05-21T00:48:06.732Z,100683.33
2023-05-21T00:50:55.245Z,100681.94
2023-05-21T00:53:42.815Z,100683.60
2023-05-21T00:56:28.605Z,100683.66
2023-05-21T00:59:19.045Z,100682.23
2023-05-21T01:02:12.323Z,100680.73
2023-05-21T01:05:00.556Z,100676.42
2023-05-21T01:07:46.121Z,100677.51
2023-05-21T01:10:31.829Z,100674.91
2023-05-21T01:13:20.337Z,100673.36
2023-05-21T01:16:06.104Z,100671.89
2023-05-21T01:18:54.004Z,100666.65
2023-05-21T01:21:51.110Z,100663.58
2023-05-21T01:24:37.340Z,100662.47
2023-05-21T01:27:22.958Z,100657.53
2023-05-21T01:30:08.988Z,100657.73
2023-05-21T01:32:58.661Z,100658.08
2023-05-21T01:35:51.083Z,100653.15
2023-05-21T01:38:53.557Z,100658.09
2023-05-21T01:41:44.450Z,100654.98
2023-05-21T01:44:32.238Z,100652.36
2023-05-21T01:47:18.933Z,100651.48
2023-05-21T01:50:05.561Z,100650.65
2023-05-21T01:53:02.571Z,100650.86
2023-05-21T01:55:47.921Z,100649.61
2023-05-21T01:58:33.443Z,100647.39
2023-05-21T02:01:21.304Z,100648.02
2023-05-21T02:04:08.774Z,100651.48
2023-05-21T02:06:54.470Z,100651.84
2023-05-21T02:09:40.684Z,100649.46
2023-05-21T02:12:29.063Z,100647.38
2023-05-21T02:15:19.259Z,100648.48
2023-05-21T02:18:06.211Z,100647.79
2023-05-21T02:20:52.267Z,100646.71
2023-05-21T02:23:39.080Z,100648.98
2023-05-21T02:26:26.814Z,100651.06
2023-05-21T02:29:12.644Z,100650.64
2023-05-21T02:31:57.920Z,100652.59
2023-05-21T02:34:45.955Z,100646.09
2023-05-21T02:37:37.832Z,100646.70
2023-05-21T02:40:25.229Z,100645.24
2023-05-21T02:43:10.461Z,100641.69
2023-05-21T02:45:56.355Z,100641.32
2023-05-21T02:51:44.284Z,100635.45
2023-05-21T02:54:31.496Z,100628.78
2023-05-21T02:57:18.354Z,100627.00
2023-05-21T03:00:08.753Z,100624.62
2023-05-21T03:02:54.684Z,100619.89
2023-05-21T03:05:43.391Z,100622.54
2023-05-21T03:08:28.974Z,100624.65
2023-05-21T03:11:14.467Z,100627.38
2023-05-21T03:14:00.082Z,100624.55
2023-05-21T03:16:45.643Z,100625.17
2023-05-21T03:19:41.437Z,100629.05
2023-05-21T03:22:27.886Z,100626.95
2023-05-21T03:25:17.667Z,100628.56
2023-05-21T03:28:04.332Z,100626.38
2023-05-21T03:30:51.599Z,100625.92
2023-05-21T03:33:37.337Z,100623.35
2023-05-21T03:36:22.961Z,100624.31
2023-05-21T03:39:10.534Z,100627.63
2023-05-21T03:42:00.562Z,100624.05
2023-05-21T03:44:47.191Z,100619.33
2023-05-21T03:47:33.799Z,100618.90
2023-05-21T03:50:19.884Z,100619.28
2023-05-21T03:53:05.743Z,100621.89
2023-05-21T03:55:55.049Z,100622.15
2023-05-21T03:58:42.473Z,100626.61
2023-05-21T04:01:28.775Z,100626.41
2023-05-21T04:04:14.659Z,100629.77
2023-05-21T04:07:01.679Z,100628.20
2023-05-21T04:09:47.022Z,100631.53
2023-05-21T04:12:33.909Z,100631.92
2023-05-21T04:15:19.383Z,100629.35
2023-05-21T04:18:06.386Z,100628.52
2023-05-21T04:20:53.520Z,100626.04
2023-05-21T04:23:40.165Z,100631.02
2023-05-21T04:26:26.009Z,100624.44
2023-05-21T04:29:11.616Z,100623.38
2023-05-21T04:31:57.376Z,100624.75
2023-05-21T04:34:46.342Z,100623.17
2023-05-21T04:37:35.423Z,100623.98
2023-05-21T04:40:25.801Z,100624.98
2023-05-21T04:43:12.917Z,100623.61
2023-05-21T04:45:59.421Z,100622.52
2023-05-21T04:48:48.297Z,100624.65
2023-05-21T04:51:33.873Z,100625.02
2023-05-21T04:54:20.022Z,100625.45
2023-05-21T04:57:08.202Z,100625.84
2023-05-21T04:59:54.442Z,100626.68
2023-05-21T05:02:40.165Z,100628.73
2023-05-21T05:05:26.687Z,100628.98
2023-05-21T05:08:14.751Z,100632.39
2023-05-21T05:11:03.578Z,100629.25
2023-05-21T05:13:48.782Z,100632.68
2023-05-21T05:16:35.725Z,100630.27
2023-05-21T05:19:21.690Z,100632.39
2023-05-21T05:22:10.840Z,100627.10
2023-05-21T05:24:57.193Z,100628.45
2023-05-21T05:27:42.496Z,100630.95
2023-05-21T05:30:29.073Z,100627.06
2023-05-21T05:33:14.916Z,100623.81
2023-05-21T05:36:00.230Z,100619.80
2023-05-21T05:38:45.668Z,100616.70
2023-05-21T05:41:31.411Z,100616.48
2023-05-21T05:44:16.725Z,100614.45
2023-05-21T05:47:01.829Z,100617.90
2023-05-21T05:49:47.517Z,100622.17
2023-05-21T05:52:33.263Z,100618.34
2023-05-21T05:55:18.541Z,100617.52
2023-05-21T05:58:04.156Z,100614.15
2023-05-21T06:00:50.576Z,100612.00
2023-05-21T06:03:36.341Z,100612.05
2023-05-21T06:06:21.978Z,100607.63
2023-05-21T06:09:07.514Z,100605.13
2023-05-21T06:11:52.758Z,100603.41
2023-05-21T06:14:38.513Z,100603.64
2023-05-21T06:17:24.454Z,100597.61
2023-05-21T06:23:25.584Z,100599.49
2023-05-21T06:29:15.485Z,100603.36
2023-05-21T06:32:01.838Z,100598.13
2023-05-21T06:34:47.451Z,100593.88
2023-05-21T06:37:33.493Z,100593.55
2023-05-21T06:40:18.724Z,100593.19
2023-05-21T06:43:05.049Z,100598.59
2023-05-21T06:45:50.359Z,100594.22
2023-05-21T06:48:38.436Z,100596.71
2023-05-21T06:51:23.939Z,100596.96
2023-05-21T06:54:09.285Z,100599.27
2023-05-21T06:56:54.771Z,100599.09
2023-05-21T06:59:40.251Z,100599.39
2023-05-21T07:02:25.974Z,100588.23
2023-05-21T07:05:11.829Z,100585.45
2023-05-21T07:07:57.390Z,100581.95
2023-05-21T07:10:43.290Z,100582.70
2023-05-21T07:13:29.584Z,100582.86
2023-05-21T07:16:18.073Z,100589.45
2023-05-21T07:19:03.826Z,100580.30
2023-05-21T07:21:49.725Z,100580.38
2023-05-21T07:24:35.201Z,100587.92
2023-05-21T07:27:25.619Z,100581.70
2023-05-21T07:30:12.100Z,100585.10
2023-05-21T07:43:32.177Z,100583.33
2023-05-21T07:53:24.771Z,100580.63
2023-05-21T07:56:37.457Z,100580.70
2023-05-21T08:00:30.727Z,100577.85
2023-05-21T08:49:45.167Z,100560.17
2023-05-21T08:52:34.649Z,100557.63
2023-05-21T08:55:23.316Z,100556.59
2023-05-21T08:58:09.952Z,100551.38
2023-05-21T09:01:00.326Z,100552.08
2023-05-21T09:03:51.694Z,100556.77
2023-05-21T09:06:57.720Z,100553.02
2023-05-21T09:09:59.583Z,100549.41
2023-05-21T09:12:54.279Z,100550.74
2023-05-21T09:15:41.866Z,100551.13
2023-05-21T09:18:29.651Z,100552.74
2023-05-21T09:21:26.808Z,100552.39
2023-05-21T09:24:14.573Z,100552.20
2023-05-21T09:27:00.560Z,100546.15
2023-05-21T09:29:46.095Z,100542.64
2023-05-21T09:32:31.979Z,100545.89
2023-05-21T09:35:18.018Z,100541.00
2023-05-21T09:44:27.013Z,100540.09
2023-05-21T09:47:12.882Z,100541.73
2023-05-21T09:49:58.523Z,100536.77
2023-05-21T09:52:47.385Z,100537.31
2023-05-21T09:55:36.440Z,100532.83
2023-05-21T09:58:22.062Z,100528.70
2023-05-21T10:01:12.552Z,100528.36
2023-05-21T10:07:18.279Z,100524.87
2023-05-21T10:10:07.825Z,100522.58
2023-05-21T10:13:07.173Z,100513.82
2023-05-21T10:16:02.908Z,100517.98
2023-05-21T10:18:53.813Z,100515.23
2023-05-21T10:21:41.635Z,100509.13
2023-05-21T10:24:31.219Z,100509.80
2023-05-21T10:27:21.343Z,100506.84
